Time;durP1;ratioP1;P1;durP2;ratioP2;P2;SDS_P1;SDS_P2;PMS_P1;PMS_P2;Temp;Humidity;BMP_temperature;BMP_pressure;BME280_temperature;BME280_humidity;BME280_pressure;Samples;Min_cycle;Max_cycle;Signal;HPM_P1;HPM_P2
2023/03/05 00:01:53;;;;;;;54.10;23.75;;;;;;;0.66;65.97;100802.78;4901087;28;20049;-67
2023/03/05 00:04:24;;;;;;;58.08;26.42;;;;;;;0.66;65.29;100793.38;4913892;28;20122;-64
2023/03/05 00:06:56;;;;;;;57.75;25.88;;;;;;;0.73;65.25;100790.16;4906618;28;20471;-63
2023/03/05 00:09:27;;;;;;;73.05;30.40;;;;;;;0.84;64.59;100804.22;4914203;28;20047;-63
2023/03/05 00:11:59;;;;;;;76.80;31.65;;;;;;;0.73;64.71;100794.44;4915638;28;20064;-62
2023/03/05 00:14:31;;;;;;;71.90;32.67;;;;;;;0.66;65.08;100788.22;4904008;28;20797;-61
2023/03/05 00:17:06;;;;;;;108.03;45.40;;;;;;;0.70;64.71;100784.94;4914326;28;20403;-62
2023/03/05 00:19:37;;;;;;;71.00;32.88;;;;;;;0.76;64.04;100779.97;4891963;28;20406;-62
2023/03/05 00:22:08;;;;;;;55.17;26.55;;;;;;;0.76;64.38;100768.81;4910930;28;20058;-63
2023/03/05 00:24:38;;;;;;;49.72;24.55;;;;;;;0.79;64.55;100764.63;4909905;28;20061;-65
2023/03/05 00:27:11;;;;;;;49.85;22.67;;;;;;;0.79;64.42;100749.19;4904950;28;20052;-64
2023/03/05 00:29:41;;;;;;;52.35;23.80;;;;;;;0.98;64.36;100780.66;4915266;28;20222;-66
2023/03/05 00:32:12;;;;;;;53.08;21.65;;;;;;;1.06;63.92;100758.59;4914961;28;20168;-62
2023/03/05 00:34:45;;;;;;;47.72;22.25;;;;;;;1.12;64.48;100748.47;4912058;28;20130;-65
2023/03/05 00:37:16;;;;;;;48.42;20.05;;;;;;;1.33;63.94;100731.91;4914313;28;20569;-67
2023/03/05 00:39:46;;;;;;;39.00;16.45;;;;;;;1.67;63.50;100723.41;4892422;28;20048;-64
2023/03/05 00:42:18;;;;;;;32.80;11.30;;;;;;;2.00;62.13;100725.13;4886461;28;20404;-64
2023/03/05 00:44:49;;;;;;;27.63;10.25;;;;;;;2.36;61.03;100717.44;4894473;28;20061;-65
2023/03/05 00:47:20;;;;;;;19.60;8.13;;;;;;;2.68;59.29;100709.59;4918342;28;20595;-67
2023/03/05 00:49:50;;;;;;;22.35;8.65;;;;;;;2.89;58.20;100715.22;4911076;28;20405;-66
2023/03/05 00:52:21;;;;;;;14.88;6.30;;;;;;;3.11;56.69;100710.53;4897066;28;20057;-66
2023/03/05 00:54:51;;;;;;;16.67;6.45;;;;;;;3.26;56.27;100713.41;4902760;28;20056;-65
2023/03/05 00:57:24;;;;;;;12.75;5.15;;;;;;;3.45;55.28;100700.03;4904828;28;20053;-67
2023/03/05 00:59:54;;;;;;;18.55;5.68;;;;;;;3.58;54.05;100697.69;4880559;28;20044;-65
2023/03/05 01:02:25;;;;;;;12.40;5.75;;;;;;;3.67;53.98;100690.13;4902496;28;20468;-65
2023/03/05 01:04:58;;;;;;;11.65;5.70;;;;;;;3.76;53.82;100677.34;4896293;28;20056;-65
2023/03/05 01:07:28;;;;;;;16.00;5.75;;;;;;;3.92;53.39;100677.63;4913717;28;20068;-65
2023/03/05 01:09:59;;;;;;;14.75;5.38;;;;;;;3.99;52.47;100671.72;4904240;28;20130;-65
2023/03/05 01:12:31;;;;;;;14.05;5.30;;;;;;;3.79;52.58;100615.34;4902360;28;20433;-65
2023/03/05 01:15:02;;;;;;;11.60;4.28;;;;;;;4.28;51.85;100683.41;4907749;28;20052;-66
2023/03/05 01:17:33;;;;;;;14.75;5.22;;;;;;;4.31;52.73;100678.28;4901985;28;20048;-66
2023/03/05 01:20:13;;;;;;;13.50;5.93;;;;;;;4.42;53.25;100667.22;4900629;28;20575;-66
2023/03/05 01:22:44;;;;;;;11.90;4.95;;;;;;;4.51;52.27;100655.28;4887383;28;20480;-66
2023/03/05 01:25:16;;;;;;;14.90;5.53;;;;;;;4.56;53.06;100650.19;4920793;28;20052;-66
2023/03/05 01:27:48;;;;;;;19.60;6.28;;;;;;;4.71;53.19;100644.34;4898982;28;20194;-66
2023/03/05 01:30:19;;;;;;;15.15;5.55;;;;;;;4.81;52.56;100642.75;4902933;28;20053;-66
2023/03/05 01:32:49;;;;;;;20.05;6.80;;;;;;;4.90;51.76;100648.06;4906790;28;20061;-67
2023/03/05 01:35:22;;;;;;;10.93;5.10;;;;;;;4.93;51.62;100642.91;4908863;28;20403;-65
2023/03/05 01:37:53;;;;;;;13.43;5.90;;;;;;;4.99;50.57;100637.78;4906392;28;20067;-66
2023/03/05 01:40:27;;;;;;;16.45;6.90;;;;;;;5.04;51.79;100630.97;4913633;28;20048;-67
2023/03/05 01:43:02;;;;;;;11.70;5.07;;;;;;;4.89;50.71;100621.31;4911652;28;20063;-66
2023/03/05 01:45:33;;;;;;;11.13;5.10;;;;;;;4.95;51.42;100628.28;4899329;28;20056;-66
2023/03/05 01:48:04;;;;;;;12.02;6.10;;;;;;;5.06;50.79;100621.47;4910653;28;20064;-67
2023/03/05 01:50:35;;;;;;;13.30;4.68;;;;;;;5.16;50.56;100610.38;4907287;28;20056;-66
2023/03/05 01:53:07;;;;;;;12.20;5.13;;;;;;;5.30;49.91;100607.09;4909046;28;20041;-66
2023/03/05 01:55:37;;;;;;;13.07;5.25;;;;;;;5.52;49.71;100614.22;4904957;28;20513;-66
2023/03/05 01:58:13;;;;;;;12.95;5.38;;;;;;;5.59;49.36;100608.25;4903267;28;20133;-65
2023/03/05 02:00:46;;;;;;;17.25;6.53;;;;;;;5.64;49.62;100608.25;4910185;28;20040;-65
2023/03/05 02:03:17;;;;;;;33.88;17.02;;;;;;;5.62;49.67;100603.09;4907687;28;20048;-65
2023/03/05 02:05:48;;;;;;;14.82;7.40;;;;;;;5.50;48.06;100605.56;4911824;28;20041;-65
2023/03/05 02:08:21;;;;;;;17.35;10.57;;;;;;;5.34;49.13;100564.78;4907743;28;20083;-64
2023/03/05 02:10:54;;;;;;;12.35;6.47;;;;;;;5.52;49.16;100583.13;4909083;28;20450;-64
2023/03/05 02:13:30;;;;;;;15.20;6.22;;;;;;;5.68;48.55;100593.63;4911091;28;20040;-64
2023/03/05 02:16:02;;;;;;;12.00;6.20;;;;;;;5.51;48.46;100565.81;4895250;28;20139;-64
2023/03/05 02:18:32;;;;;;;10.77;5.97;;;;;;;5.65;47.74;100583.22;4911375;28;20102;-64
2023/03/05 02:21:06;;;;;;;11.10;5.65;;;;;;;5.66;48.17;100580.63;4907391;28;20141;-64
2023/03/05 02:23:37;;;;;;;9.65;4.70;;;;;;;5.77;48.28;100563.47;4908873;28;20049;-64
2023/03/05 02:26:10;;;;;;;12.88;5.70;;;;;;;5.65;48.65;100552.97;4912521;28;20052;-63
2023/03/05 02:28:44;;;;;;;10.52;6.15;;;;;;;5.85;48.25;100550.56;4896907;28;20052;-65
2023/03/05 02:31:17;;;;;;;11.73;5.40;;;;;;;5.85;48.17;100555.75;4902636;28;20462;-64
2023/03/05 02:33:48;;;;;;;12.27;5.53;;;;;;;5.86;47.83;100548.81;4910711;28;20764;-65
2023/03/05 02:36:21;;;;;;;11.50;5.13;;;;;;;5.81;47.82;100559.16;4897051;28;20132;-65
2023/03/05 02:38:52;;;;;;;12.70;5.25;;;;;;;5.87;48.36;100543.66;4907087;28;20177;-64
2023/03/05 02:41:23;;;;;;;11.88;4.95;;;;;;;5.84;47.99;100553.97;4905646;28;20048;-62
2023/03/05 02:43:53;;;;;;;16.50;5.93;;;;;;;6.04;48.74;100546.38;4905639;28;20056;-62
2023/03/05 02:46:24;;;;;;;11.80;5.25;;;;;;;6.01;47.56;100504.84;4903405;28;20136;-64
2023/03/05 02:48:56;;;;;;;9.95;5.35;;;;;;;6.19;47.36;100540.41;4904314;28;20053;-65
2023/03/05 02:51:34;;;;;;;12.15;5.45;;;;;;;6.14;47.37;100522.25;4916156;28;20052;-65
2023/03/05 02:54:07;;;;;;;12.05;6.07;;;;;;;6.34;47.29;100524.06;4908984;28;20059;-65
2023/03/05 02:56:39;;;;;;;9.43;5.07;;;;;;;6.35;45.83;100516.31;4904908;28;20137;-64
2023/03/05 02:59:11;;;;;;;12.85;5.00;;;;;;;6.35;46.54;100516.31;4905855;28;20063;-63
2023/03/05 03:01:42;;;;;;;10.10;5.63;;;;;;;6.45;46.83;100507.69;4905705;28;21002;-65
2023/03/05 03:04:12;;;;;;;8.35;4.47;;;;;;;6.44;46.69;100511.16;4907101;28;20048;-62
2023/03/05 03:06:44;;;;;;;9.82;5.38;;;;;;;6.37;45.90;100506.78;4899014;28;20049;-62
2023/03/05 03:09:17;;;;;;;8.40;5.43;;;;;;;6.31;46.14;100498.09;4906730;28;20060;-63
2023/03/05 03:11:48;;;;;;;10.48;5.57;;;;;;;6.36;45.73;100494.66;4897063;28;20213;-63
2023/03/05 03:14:20;;;;;;;14.45;5.18;;;;;;;6.38;45.90;100505.91;4901927;28;22032;-62
2023/03/05 03:16:51;;;;;;;12.70;5.68;;;;;;;6.44;46.45;100490.41;4904118;28;20052;-64
2023/03/05 03:19:25;;;;;;;12.13;5.10;;;;;;;6.39;45.42;100486.91;4911068;28;20086;-63
2023/03/05 03:21:57;;;;;;;9.80;4.82;;;;;;;6.18;46.48;100434.91;4907974;28;20040;-63
2023/03/05 03:24:31;;;;;;;15.60;5.30;;;;;;;6.50;46.97;100493.88;4908649;28;20059;-64
2023/03/05 03:27:04;;;;;;;13.73;4.90;;;;;;;6.37;45.61;100447.09;4895433;28;20107;-64
2023/03/05 03:29:35;;;;;;;13.27;5.32;;;;;;;6.73;46.42;100466.25;4908579;28;20132;-65
2023/03/05 03:32:07;;;;;;;8.95;4.03;;;;;;;7.11;46.59;100463.72;4903870;28;20716;-63
2023/03/05 03:34:37;;;;;;;9.88;5.20;;;;;;;7.37;46.27;100467.22;4909860;28;20562;-62
2023/03/05 03:37:09;;;;;;;8.30;3.63;;;;;;;7.61;44.33;100454.16;4905096;28;20061;-64
2023/03/05 03:39:40;;;;;;;7.53;3.90;;;;;;;7.71;43.19;100450.72;4899485;28;20053;-64
2023/03/05 03:42:10;;;;;;;8.10;4.07;;;;;;;7.51;43.13;100410.84;4909068;28;20066;-65
2023/03/05 03:44:41;;;;;;;11.18;4.43;;;;;;;7.59;42.01;100429.91;4904346;28;20059;-65
2023/03/05 03:47:11;;;;;;;7.53;3.88;;;;;;;7.62;42.94;100429.91;4905615;28;20059;-67
2023/03/05 03:49:42;;;;;;;5.10;3.03;;;;;;;7.63;43.29;100426.44;4906282;28;20064;-64
2023/03/05 03:52:14;;;;;;;10.63;4.60;;;;;;;7.61;42.79;100422.97;4904933;28;20842;-65
2023/03/05 03:54:45;;;;;;;7.55;3.67;;;;;;;7.56;42.06;100416.91;4906029;28;21310;-65
2023/03/05 03:57:15;;;;;;;7.88;3.28;;;;;;;7.55;42.14;100407.38;4904740;28;20052;-67
2023/03/05 03:59:46;;;;;;;7.38;3.45;;;;;;;7.56;42.10;100410.00;4903446;28;20139;-68
2023/03/05 04:02:16;;;;;;;7.00;3.20;;;;;;;7.62;41.89;100409.09;4909939;28;20044;-69
2023/03/05 04:04:47;;;;;;;5.88;3.20;;;;;;;7.62;41.89;100403.03;4909591;28;20052;-69
2023/03/05 04:07:20;;;;;;;9.10;3.10;;;;;;;7.47;41.34;100409.13;4904339;28;20056;-66
2023/03/05 04:09:50;;;;;;;8.23;3.33;;;;;;;7.19;42.18;100383.16;4897429;28;20143;-68
2023/03/05 04:12:21;;;;;;;9.95;3.75;;;;;;;7.32;42.27;100400.47;4910237;28;20445;-65
2023/03/05 04:14:52;;;;;;;8.20;2.83;;;;;;;7.07;42.29;100398.75;4905764;28;20136;-67
2023/03/05 04:17:23;;;;;;;7.07;3.30;;;;;;;7.11;42.74;100409.16;4904096;28;20651;-63
2023/03/05 04:19:53;;;;;;;8.68;3.33;;;;;;;7.10;42.89;100404.81;4910163;28;20592;-64
2023/03/05 04:22:25;;;;;;;5.95;3.00;;;;;;;7.16;43.07;100403.94;4899946;28;20691;-69
2023/03/05 04:24:56;;;;;;;8.18;3.22;;;;;;;7.17;42.27;100392.69;4903819;28;20056;-66
2023/03/05 04:27:27;;;;;;;9.13;3.53;;;;;;;7.07;43.46;100398.75;4903657;28;20048;-69
2023/03/05 04:29:58;;;;;;;8.60;3.30;;;;;;;7.19;43.97;100398.75;4906283;28;20060;-68
2023/03/05 04:32:29;;;;;;;6.28;3.22;;;;;;;7.24;43.88;100397.03;4893814;28;21626;-66
2023/03/05 04:34:59;;;;;;;10.57;3.80;;;;;;;7.13;42.75;100385.75;4909760;28;20432;-67
2023/03/05 04:37:32;;;;;;;5.47;3.00;;;;;;;7.33;42.53;100407.38;4905068;28;21702;-67
2023/03/05 04:40:03;;;;;;;7.80;3.85;;;;;;;7.48;42.55;100410.84;4903636;28;20136;-69
2023/03/05 04:42:34;;;;;;;7.70;2.92;;;;;;;7.66;43.28;100397.84;4907709;28;20054;-67
2023/03/05 04:45:06;;;;;;;7.78;3.60;;;;;;;7.76;42.64;100402.13;4893052;28;20060;-66
2023/03/05 04:47:39;;;;;;;6.50;2.78;;;;;;;7.56;41.37;100401.28;4900663;28;20114;-67
2023/03/05 04:50:11;;;;;;;13.38;3.42;;;;;;;7.42;40.53;100408.28;4907023;28;20054;-67
2023/03/05 04:52:48;;;;;;;5.80;2.90;;;;;;;7.34;41.65;100393.53;4910034;28;20048;-67
2023/03/05 04:55:19;;;;;;;9.07;3.95;;;;;;;7.57;42.26;100395.25;4894723;28;20473;-63
2023/03/05 04:57:50;;;;;;;15.90;3.15;;;;;;;7.85;41.61;100413.38;4905691;28;20078;-67
2023/03/05 05:00:22;;;;;;;6.05;3.17;;;;;;;7.62;41.44;100393.50;4905223;28;20059;-66
2023/03/05 05:02:53;;;;;;;8.48;3.40;;;;;;;7.48;41.38;100400.44;4901271;28;20191;-67
2023/03/05 05:05:25;;;;;;;7.65;3.05;;;;;;;6.94;41.40;100329.47;4905728;28;20459;-64
2023/03/05 05:07:58;;;;;;;7.63;3.03;;;;;;;7.14;42.00;100390.09;4904941;28;20155;-66
2023/03/05 05:10:31;;;;;;;8.57;3.78;;;;;;;7.08;43.32;100374.50;4906147;28;20056;-67
2023/03/05 05:13:02;;;;;;;13.40;3.95;;;;;;;7.15;43.18;100370.19;4904333;28;20111;-65
2023/03/05 05:15:33;;;;;;;9.98;3.83;;;;;;;7.03;43.14;100365.84;4904501;28;20052;-66
2023/03/05 05:18:06;;;;;;;9.48;4.00;;;;;;;6.50;42.84;100270.63;4908625;28;20128;-67
2023/03/05 05:20:37;;;;;;;6.68;3.35;;;;;;;7.02;43.45;100358.94;4906272;28;20087;-66
2023/03/05 05:23:09;;;;;;;6.45;3.22;;;;;;;6.93;43.37;100343.34;4904246;28;20474;-67
2023/03/05 05:25:40;;;;;;;7.57;3.33;;;;;;;6.82;42.89;100330.34;4894955;28;20055;-66
2023/03/05 05:28:12;;;;;;;7.25;3.38;;;;;;;6.72;43.94;100334.69;4908757;28;20056;-66
2023/03/05 05:30:42;;;;;;;5.68;2.88;;;;;;;6.57;43.78;100329.47;4898487;28;20052;-64
2023/03/05 05:33:12;;;;;;;7.82;3.05;;;;;;;6.22;44.86;100296.56;4907235;28;20561;-66
2023/03/05 05:35:43;;;;;;;8.05;2.90;;;;;;;6.30;44.53;100331.16;4906339;28;20052;-66
2023/03/05 05:38:17;;;;;;;8.18;3.33;;;;;;;6.23;44.75;100324.22;4905118;28;20638;-66
2023/03/05 05:40:48;;;;;;;9.75;3.08;;;;;;;5.99;44.54;100304.25;4908116;28;20060;-66
2023/03/05 05:43:19;;;;;;;9.45;3.15;;;;;;;6.09;44.73;100325.91;4897649;28;20053;-66
2023/03/05 05:45:50;;;;;;;9.25;2.95;;;;;;;6.03;45.79;100338.00;4911509;28;20079;-67
2023/03/05 05:48:23;;;;;;;12.32;3.42;;;;;;;5.97;46.22;100322.44;4904150;28;20143;-66
2023/03/05 05:50:53;;;;;;;8.77;3.22;;;;;;;5.89;46.34;100339.66;4908140;28;20487;-65
2023/03/05 05:53:26;;;;;;;8.38;3.20;;;;;;;5.89;46.01;100339.66;4901903;28;20245;-66
2023/03/05 05:55:56;;;;;;;5.97;2.90;;;;;;;5.83;45.66;100329.25;4909615;28;20052;-67
2023/03/05 05:58:27;;;;;;;7.55;3.20;;;;;;;5.79;45.46;100332.69;4902182;28;20071;-67
2023/03/05 06:00:57;;;;;;;7.80;3.05;;;;;;;5.74;46.71;100329.19;4907909;28;20082;-67
2023/03/05 06:03:28;;;;;;;6.88;2.95;;;;;;;5.71;46.41;100324.88;4903771;28;20058;-67
2023/03/05 06:05:59;;;;;;;6.10;3.00;;;;;;;5.67;46.73;100327.47;4902228;28;20049;-67
2023/03/05 06:08:31;;;;;;;10.02;3.00;;;;;;;4.81;47.37;100193.16;4907233;28;20069;-66
2023/03/05 06:11:01;;;;;;;9.07;3.20;;;;;;;5.57;47.42;100327.41;4906509;28;20059;-67
2023/03/05 06:13:32;;;;;;;7.80;2.88;;;;;;;5.57;47.06;100332.59;4908991;28;20126;-67
2023/03/05 06:16:05;;;;;;;7.22;3.03;;;;;;;5.29;47.38;100289.25;4902064;28;20059;-66
2023/03/05 06:18:36;;;;;;;6.22;3.08;;;;;;;5.58;47.68;100349.88;4903630;28;20072;-66
2023/03/05 06:21:08;;;;;;;6.20;3.03;;;;;;;5.61;47.43;100331.72;4908953;28;20060;-67
2023/03/05 06:23:41;;;;;;;7.43;3.10;;;;;;;5.61;45.07;100323.94;4906049;28;20053;-67
2023/03/05 06:26:14;;;;;;;7.68;3.35;;;;;;;5.87;45.40;100343.97;4906011;28;20063;-66
2023/03/05 06:28:45;;;;;;;5.80;2.97;;;;;;;5.98;44.82;100350.09;4905588;28;20056;-67
2023/03/05 06:31:18;;;;;;;6.60;2.88;;;;;;;5.87;43.98;100318.03;4911852;28;20045;-66
2023/03/05 06:33:51;;;;;;;7.55;2.72;;;;;;;5.98;44.48;100326.72;4895688;28;20080;-67
2023/03/05 06:36:23;;;;;;;7.93;3.20;;;;;;;5.87;45.26;100310.25;4910720;28;20131;-66
2023/03/05 06:39:11;;;;;;;5.85;2.92;;;;;;;5.98;45.28;100313.75;4900008;28;20102;-67
2023/03/05 06:41:59;;;;;;;5.35;3.22;;;;;;;5.95;46.35;100313.75;4894438;28;20830;-67
2023/03/05 06:44:29;;;;;;;10.32;5.38;;;;;;;6.04;46.04;100293.06;4909169;28;20160;-67
2023/03/05 06:47:17;;;;;;;17.23;8.05;;;;;;;6.00;46.64;100301.69;4897994;28;20155;-67
2023/03/05 06:49:47;;;;;;;9.00;4.20;;;;;;;6.05;45.43;100289.59;4901929;28;20048;-67
2023/03/05 06:52:18;;;;;;;6.20;2.95;;;;;;;5.91;45.66;100254.06;4902572;28;23301;-67
2023/03/05 06:54:54;;;;;;;9.93;2.70;;;;;;;6.06;44.56;100280.06;4900956;28;20053;-66
2023/03/05 06:57:25;;;;;;;6.22;2.72;;;;;;;6.05;44.44;100278.34;4904602;28;20153;-67
2023/03/05 06:59:55;;;;;;;6.72;2.88;;;;;;;6.02;44.89;100279.22;4903262;28;23136;-67
2023/03/05 07:02:27;;;;;;;6.70;2.67;;;;;;;5.98;45.29;100266.22;4900447;28;20056;-67
2023/03/05 07:04:57;;;;;;;6.38;3.13;;;;;;;5.98;45.31;100261.91;4900942;28;20796;-65
2023/03/05 07:07:28;;;;;;;29.90;11.57;;;;;;;5.92;46.05;100282.59;4900692;28;20044;-66
2023/03/05 07:10:00;;;;;;;12.90;5.55;;;;;;;5.85;46.34;100270.47;4900141;28;20083;-65
2023/03/05 07:12:45;;;;;;;9.55;3.75;;;;;;;5.76;45.53;100265.25;4881989;28;20056;-66
2023/03/05 07:15:16;;;;;;;11.15;3.47;;;;;;;5.69;46.45;100268.69;4907800;28;20056;-65
2023/03/05 07:17:47;;;;;;;8.07;3.63;;;;;;;5.59;46.45;100266.09;4907986;28;20379;-66
2023/03/05 07:20:18;;;;;;;9.38;3.50;;;;;;;5.60;46.75;100267.81;4904965;28;20461;-65
2023/03/05 07:22:55;;;;;;;6.75;3.47;;;;;;;5.60;46.95;100272.97;4893317;28;20099;-66
2023/03/05 07:25:27;;;;;;;6.22;2.88;;;;;;;5.51;46.94;100275.53;4903478;28;20055;-66
2023/03/05 07:27:58;;;;;;;8.20;3.05;;;;;;;5.24;47.52;100239.13;4901940;28;20057;-66
2023/03/05 07:30:45;;;;;;;8.82;3.30;;;;;;;5.34;47.27;100287.53;4888518;28;20064;-66
2023/03/05 07:33:15;;;;;;;5.50;2.97;;;;;;;5.24;47.91;100286.66;4906149;28;20057;-67
2023/03/05 07:35:46;;;;;;;8.20;3.25;;;;;;;5.06;48.02;100270.97;4905939;28;20167;-67
2023/03/05 07:38:17;;;;;;;9.40;3.45;;;;;;;4.91;48.93;100276.91;4902017;28;20056;-67
2023/03/05 07:40:49;;;;;;;8.38;4.40;;;;;;;4.79;49.21;100274.25;4900677;28;20086;-66
2023/03/05 07:43:21;;;;;;;13.73;5.07;;;;;;;4.70;49.36;100278.50;4889759;28;20048;-64
2023/03/05 07:45:52;;;;;;;7.20;4.13;;;;;;;4.62;49.60;100275.00;4905660;28;20052;-65
2023/03/05 07:48:22;;;;;;;9.63;3.90;;;;;;;4.53;49.69;100285.25;4908596;28;20118;-65
2023/03/05 07:51:02;;;;;;;8.50;3.25;;;;;;;4.30;49.85;100265.22;4908228;28;20080;-65
2023/03/05 07:53:53;;;;;;;8.48;3.63;;;;;;;4.29;50.97;100291.97;4890413;28;20629;-64
2023/03/05 07:56:45;;;;;;;9.30;3.60;;;;;;;4.15;51.32;100298.72;4887905;28;20943;-65
2023/03/05 07:59:15;;;;;;;11.27;4.07;;;;;;;4.06;51.88;100308.94;4905275;28;20135;-68
2023/03/05 08:01:46;;;;;;;10.35;3.70;;;;;;;3.98;52.26;100308.00;4910070;28;20143;-66
2023/03/05 08:04:17;;;;;;;9.48;4.00;;;;;;;3.85;53.11;100305.28;4902167;28;20052;-65
2023/03/05 08:06:48;;;;;;;10.60;4.00;;;;;;;3.17;53.51;100205.44;4907578;28;20048;-69
2023/03/05 08:09:20;;;;;;;9.68;4.60;;;;;;;3.66;53.88;100303.31;4900352;28;21877;-66
2023/03/05 08:11:55;;;;;;;16.42;4.05;;;;;;;3.60;54.16;100298.09;4902499;28;20067;-66
2023/03/05 08:14:26;;;;;;;12.23;4.28;;;;;;;3.53;54.11;100301.44;4906395;28;20151;-65
2023/03/05 08:16:58;;;;;;;9.95;4.30;;;;;;;3.42;54.65;100304.75;4901860;28;20110;-66
2023/03/05 08:19:45;;;;;;;13.48;5.15;;;;;;;3.32;55.31;100310.66;4886103;28;20158;-69
2023/03/05 08:22:51;;;;;;;11.32;4.07;;;;;;;3.29;55.58;100313.16;4908411;28;20062;-68
2023/03/05 08:25:30;;;;;;;11.45;4.75;;;;;;;3.22;55.80;100321.66;4897957;28;20044;-66
2023/03/05 08:28:03;;;;;;;11.45;4.30;;;;;;;3.10;56.41;100311.19;4898536;28;20051;-68
2023/03/05 08:30:56;;;;;;;10.13;4.18;;;;;;;3.04;55.93;100311.94;4831316;28;20054;-67
2023/03/05 08:33:42;;;;;;;15.20;4.10;;;;;;;2.38;55.89;100220.63;4818970;28;20060;-66
2023/03/05 08:36:12;;;;;;;21.73;8.10;;;;;;;2.93;56.57;100316.97;4849257;28;20057;-69
2023/03/05 08:38:53;;;;;;;18.35;5.55;;;;;;;2.89;56.83;100322.91;4847748;28;20049;-66
2023/03/05 08:41:32;;;;;;;16.15;5.70;;;;;;;2.78;57.44;100303.81;4838086;28;20149;-67
2023/03/05 08:44:05;;;;;;;9.68;4.35;;;;;;;2.80;57.29;100320.19;4819910;28;20062;-66
2023/03/05 08:46:35;;;;;;;13.45;4.65;;;;;;;2.75;57.47;100332.16;4843484;28;20042;-67
2023/03/05 08:49:07;;;;;;;10.05;4.47;;;;;;;2.65;58.05;100322.53;4845592;28;20046;-65
2023/03/05 08:51:38;;;;;;;10.57;3.90;;;;;;;2.67;57.58;100328.56;4844525;28;20053;-66
2023/03/05 08:54:11;;;;;;;10.40;4.22;;;;;;;2.66;57.92;100325.13;4845877;28;20057;-65
2023/03/05 08:56:46;;;;;;;10.00;4.07;;;;;;;2.62;57.78;100327.63;4847427;28;20049;-68
2023/03/05 08:59:18;;;;;;;14.18;3.42;;;;;;;2.62;57.83;100327.63;4830345;28;20058;-66
2023/03/05 09:01:49;;;;;;;12.25;3.80;;;;;;;2.59;57.93;100324.13;4828702;28;20074;-68
2023/03/05 09:04:22;;;;;;;9.18;3.83;;;;;;;2.55;57.86;100327.53;4841804;28;20179;-67
2023/03/05 09:06:56;;;;;;;12.65;4.50;;;;;;;2.53;57.87;100315.44;4855720;28;20052;-67
2023/03/05 09:09:28;;;;;;;16.75;4.57;;;;;;;2.52;58.33;100317.16;4906431;28;20056;-68
2023/03/05 09:12:19;;;;;;;11.68;4.03;;;;;;;2.52;58.23;100326.59;4896064;28;20048;-67
2023/03/05 09:14:51;;;;;;;7.93;3.42;;;;;;;2.47;58.66;100323.97;4901389;28;20073;-67
2023/03/05 09:17:30;;;;;;;9.95;3.83;;;;;;;2.42;58.70;100315.28;4901035;28;20056;-68
2023/03/05 09:20:05;;;;;;;10.63;4.40;;;;;;;1.98;58.65;100243.16;4894638;28;20103;-67
2023/03/05 09:22:36;;;;;;;12.13;4.63;;;;;;;2.42;58.55;100325.59;4908122;28;20554;-68
2023/03/05 09:25:07;;;;;;;16.33;3.83;;;;;;;2.37;58.96;100311.72;4902204;28;20059;-68
2023/03/05 09:27:44;;;;;;;13.68;4.18;;;;;;;2.33;58.70;100309.94;4905466;28;20121;-66
2023/03/05 09:30:17;;;;;;;15.68;5.57;;;;;;;2.36;58.86;100315.16;4905800;28;20052;-67
2023/03/05 09:32:53;;;;;;;15.57;4.43;;;;;;;2.24;58.34;100300.31;4896350;28;20067;-68
2023/03/05 09:35:27;;;;;;;13.07;4.18;;;;;;;2.34;59.08;100306.50;4906395;28;20507;-68
2023/03/05 09:38:00;;;;;;;10.48;3.72;;;;;;;2.27;59.49;100304.66;4901333;28;20123;-67
2023/03/05 09:40:38;;;;;;;9.75;3.78;;;;;;;2.19;59.76;100307.09;4897655;28;20060;-68
2023/03/05 09:43:22;;;;;;;12.27;4.05;;;;;;;2.18;59.73;100310.53;4895439;28;20044;-68
2023/03/05 09:46:16;;;;;;;13.93;4.05;;;;;;;2.14;59.60;100319.91;4894321;28;20060;-68
2023/03/05 09:48:52;;;;;;;13.02;4.35;;;;;;;2.11;60.06;100319.00;4894628;28;20052;-67
2023/03/05 09:51:30;;;;;;;9.30;3.55;;;;;;;2.07;59.98;100318.06;4897504;28;20049;-68
2023/03/05 09:54:05;;;;;;;12.27;4.28;;;;;;;2.07;60.17;100323.22;4896807;28;20044;-68
2023/03/05 09:56:38;;;;;;;11.02;4.93;;;;;;;1.99;60.84;100319.63;4905975;28;20942;-67
2023/03/05 09:59:24;;;;;;;11.40;3.92;;;;;;;1.34;60.39;100216.16;4894808;28;20091;-69
2023/03/05 10:02:02;;;;;;;13.55;4.38;;;;;;;2.00;60.49;100311.06;4897407;28;20048;-69
2023/03/05 10:04:45;;;;;;;14.68;4.45;;;;;;;2.04;60.28;100312.84;4895245;28;20066;-67
2023/03/05 10:07:21;;;;;;;11.02;3.75;;;;;;;2.05;60.64;100306.88;4896934;28;20076;-67
2023/03/05 10:09:58;;;;;;;14.95;3.83;;;;;;;2.03;60.07;100305.97;4895427;28;20114;-66
2023/03/05 10:12:41;;;;;;;;;;;;;;;2.04;60.08;100315.41;4897149;28;20654;-67
2023/03/05 10:15:27;;;;;;;12.90;4.80;;;;;;;1.80;60.39;100276.28;4898813;28;19955;-67
2023/03/05 10:18:23;;;;;;;9.93;4.43;;;;;;;1.98;60.21;100317.88;4898791;28;20060;-69
2023/03/05 10:21:05;;;;;;;9.70;3.42;;;;;;;1.65;60.81;100252.00;4896849;28;20057;-67
2023/03/05 10:24:01;;;;;;;19.27;4.27;;;;;;;1.90;61.21;100316.88;4904571;28;25046;-70
2023/03/05 10:26:48;;;;;;;12.32;4.57;;;;;;;1.91;60.51;100306.59;4889022;28;20299;-67
2023/03/05 10:30:00;;;;;;;10.80;4.03;;;;;;;2.00;60.56;100293.03;4908291;28;20075;-69
2023/03/05 10:32:51;;;;;;;17.38;4.70;;;;;;;2.03;59.61;100285.34;4907619;28;21383;-72
2023/03/05 10:36:00;;;;;;;15.73;4.72;;;;;;;2.06;60.13;100300.84;4897532;28;20118;-69
2023/03/05 10:39:35;;;;;;;10.70;4.38;;;;;;;2.07;59.68;100296.56;4896779;28;20424;-68
2023/03/05 10:42:53;;;;;;;12.57;3.75;;;;;;;2.03;60.27;100300.81;4860495;28;20044;-71
2023/03/05 10:45:48;;;;;;;12.43;4.40;;;;;;;1.93;60.22;100284.31;4894434;28;20064;-66
2023/03/05 10:48:51;;;;;;;16.87;4.90;;;;;;;1.81;60.93;100285.78;4894591;28;20151;-70
2023/03/05 10:51:55;;;;;;;21.30;5.28;;;;;;;1.75;61.51;100308.81;4898359;28;20271;-71
2023/03/05 10:54:41;;;;;;;14.85;4.65;;;;;;;1.52;62.50;100293.78;4889158;28;20050;-69
2023/03/05 10:57:22;;;;;;;13.15;4.63;;;;;;;1.46;62.89;100285.94;4900088;28;20059;-69
2023/03/05 11:00:20;;;;;;;15.07;5.82;;;;;;;1.46;62.79;100296.22;4892504;28;20098;-67
2023/03/05 11:03:07;;;;;;;14.38;5.03;;;;;;;1.43;63.00;100296.19;4903791;28;20133;-70
2023/03/05 11:06:03;;;;;;;19.42;5.57;;;;;;;1.37;63.04;100294.31;4890964;28;20213;-68
2023/03/05 11:08:51;;;;;;;18.73;7.50;;;;;;;0.68;63.60;100200.19;4896851;28;20048;-67
2023/03/05 11:12:17;;;;;;;21.58;6.45;;;;;;;1.07;64.82;100297.09;4894748;28;20048;-71
2023/03/05 11:15:25;;;;;;;24.08;6.60;;;;;;;0.94;65.45;100305.38;4906629;28;20048;-69
2023/03/05 11:18:22;;;;;;;17.63;7.55;;;;;;;0.56;65.93;100257.34;4896678;28;20082;-68
2023/03/05 11:21:26;;;;;;;20.70;6.28;;;;;;;0.30;65.48;100179.63;4897132;28;20110;-70
2023/03/05 11:24:17;;;;;;;14.40;5.15;;;;;;;0.86;65.42;100275.19;4897424;28;20102;-69
2023/03/05 11:26:58;;;;;;;12.68;4.47;;;;;;;0.95;65.58;100289.09;4891703;28;20048;-71
2023/03/05 11:29:31;;;;;;;28.98;7.82;;;;;;;0.41;65.53;100193.56;4899501;28;20419;-69
2023/03/05 11:32:20;;;;;;;22.88;7.57;;;;;;;1.05;65.53;100283.34;4907564;28;20074;-67
2023/03/05 11:34:52;;;;;;;20.20;8.55;;;;;;;1.15;65.09;100275.00;4895299;28;20403;-69
2023/03/05 11:37:27;;;;;;;35.22;14.32;;;;;;;1.14;65.23;100275.81;4906262;28;20321;-71
2023/03/05 11:40:23;;;;;;;72.35;21.80;;;;;;;1.20;64.72;100273.38;4903800;28;20450;-69
2023/03/05 11:43:00;;;;;;;14.48;6.10;;;;;;;1.37;63.99;100270.28;4903938;28;20053;-69
2023/03/05 11:45:34;;;;;;;19.42;4.97;;;;;;;1.18;63.32;100223.56;4896700;28;20048;-71
2023/03/05 11:48:27;;;;;;;27.20;7.95;;;;;;;1.29;63.00;100227.22;4896660;28;20130;-69
2023/03/05 11:51:01;;;;;;;21.85;5.97;;;;;;;1.58;62.69;100260.44;4908750;28;20305;-70
2023/03/05 11:53:35;;;;;;;14.82;4.32;;;;;;;1.50;62.22;100225.94;4904029;28;20470;-70
2023/03/05 11:56:44;;;;;;;18.15;6.47;;;;;;;1.76;62.46;100259.06;4906189;28;20057;-73
2023/03/05 11:59:44;;;;;;;15.10;4.57;;;;;;;1.55;62.63;100244.94;4899711;28;20142;-68
2023/03/05 12:02:24;;;;;;;15.80;4.57;;;;;;;1.45;62.92;100237.88;4892213;28;20063;-68
2023/03/05 12:05:08;;;;;;;15.45;4.57;;;;;;;1.69;62.76;100252.91;4889606;28;20060;-69
2023/03/05 12:07:47;;;;;;;17.67;4.68;;;;;;;1.70;62.52;100255.53;4892103;28;20059;-68